sensor_id;sensor_type;location;lat;lon;timestamp;temperature;humidity
37412;DHT22;23278;52.110;6.050;2022-07-06T00:09:05;13.50;94.00
37412;DHT22;23278;52.110;6.050;2022-07-06T00:11:32;13.60;94.20
37412;DHT22;23278;52.110;6.050;2022-07-06T00:13:58;13.60;94.50
37412;DHT22;23278;52.110;6.050;2022-07-06T00:16:24;13.70;94.60
37412;DHT22;23278;52.110;6.050;2022-07-06T00:18:51;13.80;94.50
37412;DHT22;23278;52.110;6.050;2022-07-06T00:21:17;13.80;94.50
37412;DHT22;23278;52.110;6.050;2022-07-06T00:23:43;13.90;94.90
37412;DHT22;23278;52.110;6.050;2022-07-06T00:26:09;13.90;94.80
37412;DHT22;23278;52.110;6.050;2022-07-06T00:28:35;14.00;95.00
37412;DHT22;23278;52.110;6.050;2022-07-06T00:31:01;14.00;95.20
37412;DHT22;23278;52.110;6.050;2022-07-06T00:33:28;14.00;95.30
37412;DHT22;23278;52.110;6.050;2022-07-06T00:35:53;14.00;95.40
37412;DHT22;23278;52.110;6.050;2022-07-06T00:38:19;14.10;95.60
37412;DHT22;23278;52.110;6.050;2022-07-06T00:40:45;14.10;95.40
37412;DHT22;23278;52.110;6.050;2022-07-06T00:43:11;14.20;95.50
37412;DHT22;23278;52.110;6.050;2022-07-06T00:45:37;14.20;95.50
37412;DHT22;23278;52.110;6.050;2022-07-06T00:48:03;14.20;95.50
37412;DHT22;23278;52.110;6.050;2022-07-06T00:50:30;14.30;95.50
37412;DHT22;23278;52.110;6.050;2022-07-06T00:53:02;14.30;95.50
37412;DHT22;23278;52.110;6.050;2022-07-06T00:55:34;14.30;95.50
37412;DHT22;23278;52.110;6.050;2022-07-06T00:58:03;14.30;95.60
37412;DHT22;23278;52.110;6.050;2022-07-06T01:00:30;14.30;95.60
37412;DHT22;23278;52.110;6.050;2022-07-06T01:02:57;14.30;95.70
37412;DHT22;23278;52.110;6.050;2022-07-06T01:05:23;14.30;95.60
37412;DHT22;23278;52.110;6.050;2022-07-06T01:07:51;14.30;95.60
37412;DHT22;23278;52.110;6.050;2022-07-06T01:10:18;14.30;95.70
37412;DHT22;23278;52.110;6.050;2022-07-06T01:12:46;14.30;95.70
37412;DHT22;23278;52.110;6.050;2022-07-06T01:15:19;14.30;95.70
37412;DHT22;23278;52.110;6.050;2022-07-06T01:17:45;14.30;95.60
37412;DHT22;23278;52.110;6.050;2022-07-06T01:20:16;14.20;95.70
37412;DHT22;23278;52.110;6.050;2022-07-06T01:22:43;14.30;95.80
37412;DHT22;23278;52.110;6.050;2022-07-06T01:25:09;14.20;95.80
37412;DHT22;23278;52.110;6.050;2022-07-06T01:27:37;14.20;96.00
37412;DHT22;23278;52.110;6.050;2022-07-06T01:30:09;14.10;96.10
37412;DHT22;23278;52.110;6.050;2022-07-06T01:32:37;14.10;96.20
37412;DHT22;23278;52.110;6.050;2022-07-06T01:35:05;13.90;96.20
37412;DHT22;23278;52.110;6.050;2022-07-06T01:37:32;13.80;96.40
37412;DHT22;23278;52.110;6.050;2022-07-06T01:40:02;13.70;96.60
37412;DHT22;23278;52.110;6.050;2022-07-06T01:42:29;13.60;96.60
37412;DHT22;23278;52.110;6.050;2022-07-06T01:44:55;13.50;96.60
37412;DHT22;23278;52.110;6.050;2022-07-06T01:47:21;13.40;96.80
37412;DHT22;23278;52.110;6.050;2022-07-06T01:49:50;13.40;96.90
37412;DHT22;23278;52.110;6.050;2022-07-06T01:52:16;13.30;97.00
37412;DHT22;23278;52.110;6.050;2022-07-06T01:54:42;13.20;97.00
37412;DHT22;23278;52.110;6.050;2022-07-06T01:57:08;13.10;97.20
37412;DHT22;23278;52.110;6.050;2022-07-06T01:59:35;13.10;97.70
37412;DHT22;23278;52.110;6.050;2022-07-06T02:02:01;13.00;97.70
37412;DHT22;23278;52.110;6.050;2022-07-06T02:04:27;13.00;97.70
37412;DHT22;23278;52.110;6.050;2022-07-06T02:06:53;12.90;98.10
37412;DHT22;23278;52.110;6.050;2022-07-06T02:09:20;12.90;98.20
37412;DHT22;23278;52.110;6.050;2022-07-06T02:11:46;12.80;98.50
37412;DHT22;23278;52.110;6.050;2022-07-06T02:14:13;12.80;98.40
37412;DHT22;23278;52.110;6.050;2022-07-06T02:16:40;12.70;98.50
37412;DHT22;23278;52.110;6.050;2022-07-06T02:19:06;12.70;98.70
37412;DHT22;23278;52.110;6.050;2022-07-06T02:21:32;12.60;98.80
37412;DHT22;23278;52.110;6.050;2022-07-06T02:23:58;12.60;99.10
37412;DHT22;23278;52.110;6.050;2022-07-06T02:26:24;12.60;99.10
37412;DHT22;23278;52.110;6.050;2022-07-06T02:28:50;12.50;99.20
37412;DHT22;23278;52.110;6.050;2022-07-06T02:31:16;12.50;99.10
37412;DHT22;23278;52.110;6.050;2022-07-06T02:33:44;12.50;99.20
37412;DHT22;23278;52.110;6.050;2022-07-06T02:36:11;12.50;99.10
37412;DHT22;23278;52.110;6.050;2022-07-06T02:38:37;12.50;99.00
37412;DHT22;23278;52.110;6.050;2022-07-06T02:41:03;12.50;99.00
37412;DHT22;23278;52.110;6.050;2022-07-06T02:43:29;12.60;99.20
37412;DHT22;23278;52.110;6.050;2022-07-06T02:45:55;12.50;99.10
37412;DHT22;23278;52.110;6.050;2022-07-06T02:48:21;12.50;99.20
37412;DHT22;23278;52.110;6.050;2022-07-06T02:50:49;12.50;99.20
37412;DHT22;23278;52.110;6.050;2022-07-06T02:53:18;12.50;99.00
37412;DHT22;23278;52.110;6.050;2022-07-06T02:55:45;12.60;99.00
37412;DHT22;23278;52.110;6.050;2022-07-06T02:58:11;12.60;98.90
37412;DHT22;23278;52.110;6.050;2022-07-06T03:00:37;12.70;99.10
37412;DHT22;23278;52.110;6.050;2022-07-06T03:03:03;12.60;99.00
37412;DHT22;23278;52.110;6.050;2022-07-06T03:05:30;12.60;99.00
37412;DHT22;23278;52.110;6.050;2022-07-06T03:07:56;12.60;99.00
37412;DHT22;23278;52.110;6.050;2022-07-06T03:10:22;12.50;99.00
37412;DHT22;23278;52.110;6.050;2022-07-06T03:12:48;12.50;99.00
37412;DHT22;23278;52.110;6.050;2022-07-06T03:15:14;12.60;99.00
37412;DHT22;23278;52.110;6.050;2022-07-06T03:17:43;12.60;98.90
37412;DHT22;23278;52.110;6.050;2022-07-06T03:20:11;12.70;98.80
37412;DHT22;23278;52.110;6.050;2022-07-06T03:22:36;12.70;98.80
37412;DHT22;23278;52.110;6.050;2022-07-06T03:25:04;12.80;98.80
37412;DHT22;23278;52.110;6.050;2022-07-06T03:27:31;12.90;98.80
37412;DHT22;23278;52.110;6.050;2022-07-06T03:29:58;13.00;98.80
37412;DHT22;23278;52.110;6.050;2022-07-06T03:32:24;13.00;98.70
37412;DHT22;23278;52.110;6.050;2022-07-06T03:34:51;13.00;98.70
37412;DHT22;23278;52.110;6.050;2022-07-06T03:37:17;13.10;98.80
37412;DHT22;23278;52.110;6.050;2022-07-06T03:39:42;13.10;98.70
37412;DHT22;23278;52.110;6.050;2022-07-06T03:42:10;13.20;98.80
37412;DHT22;23278;52.110;6.050;2022-07-06T03:44:36;13.20;98.70
37412;DHT22;23278;52.110;6.050;2022-07-06T03:47:03;13.30;98.70
37412;DHT22;23278;52.110;6.050;2022-07-06T03:49:29;13.40;98.60
37412;DHT22;23278;52.110;6.050;2022-07-06T03:51:58;13.40;98.50
37412;DHT22;23278;52.110;6.050;2022-07-06T03:57:41;13.50;98.40
37412;DHT22;23278;52.110;6.050;2022-07-06T04:00:10;13.50;98.40
37412;DHT22;23278;52.110;6.050;2022-07-06T04:02:48;13.60;98.40
37412;DHT22;23278;52.110;6.050;2022-07-06T04:05:19;13.60;98.30
37412;DHT22;23278;52.110;6.050;2022-07-06T04:07:50;13.70;98.30
37412;DHT22;23278;52.110;6.050;2022-07-06T04:10:16;13.80;98.20
37412;DHT22;23278;52.110;6.050;2022-07-06T04:12:44;13.80;98.10
37412;DHT22;23278;52.110;6.050;2022-07-06T04:15:12;13.80;98.10
37412;DHT22;23278;52.110;6.050;2022-07-06T04:17:39;13.80;98.10
37412;DHT22;23278;52.110;6.050;2022-07-06T04:20:30;13.80;98.10
37412;DHT22;23278;52.110;6.050;2022-07-06T04:22:57;13.70;98.20
37412;DHT22;23278;52.110;6.050;2022-07-06T04:25:24;13.60;98.30
37412;DHT22;23278;52.110;6.050;2022-07-06T04:27:51;13.50;98.50
37412;DHT22;23278;52.110;6.050;2022-07-06T04:30:17;13.40;98.50
37412;DHT22;23278;52.110;6.050;2022-07-06T04:32:43;13.40;98.60
37412;DHT22;23278;52.110;6.050;2022-07-06T04:35:10;13.30;98.60
37412;DHT22;23278;52.110;6.050;2022-07-06T04:37:36;13.20;98.70
37412;DHT22;23278;52.110;6.050;2022-07-06T04:40:03;13.20;98.80
37412;DHT22;23278;52.110;6.050;2022-07-06T04:42:30;13.10;98.80
37412;DHT22;23278;52.110;6.050;2022-07-06T04:44:56;13.10;98.80
37412;DHT22;23278;52.110;6.050;2022-07-06T04:47:22;13.10;98.80
37412;DHT22;23278;52.110;6.050;2022-07-06T04:49:48;13.20;98.70
37412;DHT22;23278;52.110;6.050;2022-07-06T04:52:14;13.20;98.60
37412;DHT22;23278;52.110;6.050;2022-07-06T04:54:40;13.30;98.60
37412;DHT22;23278;52.110;6.050;2022-07-06T04:57:06;13.40;98.50
37412;DHT22;23278;52.110;6.050;2022-07-06T04:59:32;13.50;98.40
37412;DHT22;23278;52.110;6.050;2022-07-06T05:02:00;13.70;98.30
37412;DHT22;23278;52.110;6.050;2022-07-06T05:04:27;13.80;98.20
37412;DHT22;23278;52.110;6.050;2022-07-06T05:06:55;14.00;98.10
37412;DHT22;23278;52.110;6.050;2022-07-06T05:09:21;14.10;98.00
37412;DHT22;23278;52.110;6.050;2022-07-06T05:11:48;14.20;97.90
37412;DHT22;23278;52.110;6.050;2022-07-06T05:14:14;14.30;97.70
37412;DHT22;23278;52.110;6.050;2022-07-06T05:16:40;14.50;97.70
37412;DHT22;23278;52.110;6.050;2022-07-06T05:19:07;14.50;97.50
37412;DHT22;23278;52.110;6.050;2022-07-06T05:21:33;14.60;97.40
37412;DHT22;23278;52.110;6.050;2022-07-06T05:24:00;14.80;97.30
37412;DHT22;23278;52.110;6.050;2022-07-06T05:26:27;14.80;97.20
37412;DHT22;23278;52.110;6.050;2022-07-06T05:28:54;14.90;97.10
37412;DHT22;23278;52.110;6.050;2022-07-06T05:31:21;14.90;97.00
37412;DHT22;23278;52.110;6.050;2022-07-06T05:33:47;15.10;96.80
37412;DHT22;23278;52.110;6.050;2022-07-06T05:36:13;15.20;96.70
37412;DHT22;23278;52.110;6.050;2022-07-06T05:38:39;15.30;96.50
37412;DHT22;23278;52.110;6.050;2022-07-06T05:41:06;15.40;96.40
37412;DHT22;23278;52.110;6.050;2022-07-06T05:43:36;15.50;96.30
37412;DHT22;23278;52.110;6.050;2022-07-06T05:46:03;15.60;96.20
37412;DHT22;23278;52.110;6.050;2022-07-06T05:48:31;15.70;96.20
37412;DHT22;23278;52.110;6.050;2022-07-06T05:51:16;15.80;96.00
37412;DHT22;23278;52.110;6.050;2022-07-06T05:53:43;15.90;95.80
37412;DHT22;23278;52.110;6.050;2022-07-06T05:56:09;15.90;95.70
37412;DHT22;23278;52.110;6.050;2022-07-06T05:58:37;16.00;95.70
37412;DHT22;23278;52.110;6.050;2022-07-06T06:01:03;16.00;95.70
37412;DHT22;23278;52.110;6.050;2022-07-06T06:03:31;16.00;95.70
37412;DHT22;23278;52.110;6.050;2022-07-06T06:05:56;15.90;95.70
37412;DHT22;23278;52.110;6.050;2022-07-06T06:08:24;15.80;95.80
37412;DHT22;23278;52.110;6.050;2022-07-06T06:10:52;15.80;95.90
37412;DHT22;23278;52.110;6.050;2022-07-06T06:13:20;15.70;96.00
37412;DHT22;23278;52.110;6.050;2022-07-06T06:15:46;15.60;96.10
37412;DHT22;23278;52.110;6.050;2022-07-06T06:18:14;15.60;96.10
37412;DHT22;23278;52.110;6.050;2022-07-06T06:20:43;15.50;96.20
37412;DHT22;23278;52.110;6.050;2022-07-06T06:23:09;15.50;96.30
37412;DHT22;23278;52.110;6.050;2022-07-06T06:25:37;15.60;96.50
37412;DHT22;23278;52.110;6.050;2022-07-06T06:28:05;15.50;96.50
37412;DHT22;23278;52.110;6.050;2022-07-06T06:30:31;15.50;96.60
37412;DHT22;23278;52.110;6.050;2022-07-06T06:33:12;15.50;96.70
37412;DHT22;23278;52.110;6.050;2022-07-06T06:35:44;15.50;96.70
37412;DHT22;23278;52.110;6.050;2022-07-06T06:38:11;15.60;96.70
37412;DHT22;23278;52.110;6.050;2022-07-06T06:40:37;15.70;96.70
37412;DHT22;23278;52.110;6.050;2022-07-06T06:43:03;15.70;96.60
37412;DHT22;23278;52.110;6.050;2022-07-06T06:45:31;15.80;96.50
37412;DHT22;23278;52.110;6.050;2022-07-06T06:47:57;16.00;96.50
37412;DHT22;23278;52.110;6.050;2022-07-06T06:50:22;16.10;96.40
37412;DHT22;23278;52.110;6.050;2022-07-06T06:52:50;16.20;96.20
37412;DHT22;23278;52.110;6.050;2022-07-06T06:55:16;16.30;96.00
37412;DHT22;23278;52.110;6.050;2022-07-06T06:57:43;16.40;95.90
37412;DHT22;23278;52.110;6.050;2022-07-06T07:00:09;16.60;95.70
37412;DHT22;23278;52.110;6.050;2022-07-06T07:02:36;16.70;95.40
37412;DHT22;23278;52.110;6.050;2022-07-06T07:05:03;16.90;95.00
37412;DHT22;23278;52.110;6.050;2022-07-06T07:07:29;16.90;94.50
37412;DHT22;23278;52.110;6.050;2022-07-06T07:09:55;17.10;94.10
37412;DHT22;23278;52.110;6.050;2022-07-06T07:12:20;17.20;93.70
37412;DHT22;23278;52.110;6.050;2022-07-06T07:14:46;17.20;93.60
37412;DHT22;23278;52.110;6.050;2022-07-06T07:17:13;17.20;93.50
37412;DHT22;23278;52.110;6.050;2022-07-06T07:19:39;17.10;93.40
37412;DHT22;23278;52.110;6.050;2022-07-06T07:22:05;17.10;93.20
37412;DHT22;23278;52.110;6.050;2022-07-06T07:24:31;17.20;92.80
37412;DHT22;23278;52.110;6.050;2022-07-06T07:26:57;17.20;92.60
37412;DHT22;23278;52.110;6.050;2022-07-06T07:29:23;17.10;92.60
37412;DHT22;23278;52.110;6.050;2022-07-06T07:31:49;17.10;92.60
37412;DHT22;23278;52.110;6.050;2022-07-06T07:34:15;17.20;92.50
37412;DHT22;23278;52.110;6.050;2022-07-06T07:36:41;17.20;92.20
37412;DHT22;23278;52.110;6.050;2022-07-06T07:39:07;17.30;91.70
37412;DHT22;23278;52.110;6.050;2022-07-06T07:41:33;17.40;91.10
37412;DHT22;23278;52.110;6.050;2022-07-06T07:43:59;17.40;90.90
37412;DHT22;23278;52.110;6.050;2022-07-06T07:46:25;17.60;90.60
37412;DHT22;23278;52.110;6.050;2022-07-06T07:48:51;17.80;90.20
37412;DHT22;23278;52.110;6.050;2022-07-06T07:51:18;18.10;89.00
37412;DHT22;23278;52.110;6.050;2022-07-06T07:53:45;18.40;88.00
37412;DHT22;23278;52.110;6.050;2022-07-06T07:56:11;18.60;86.40
37412;DHT22;23278;52.110;6.050;2022-07-06T07:58:37;18.80;85.50
37412;DHT22;23278;52.110;6.050;2022-07-06T08:01:03;19.00;84.20
37412;DHT22;23278;52.110;6.050;2022-07-06T08:03:30;19.30;83.10
37412;DHT22;23278;52.110;6.050;2022-07-06T08:05:57;19.60;80.40
37412;DHT22;23278;52.110;6.050;2022-07-06T08:08:23;19.90;78.10
37412;DHT22;23278;52.110;6.050;2022-07-06T08:10:49;20.10;76.80
37412;DHT22;23278;52.110;6.050;2022-07-06T08:13:15;20.40;75.30
37412;DHT22;23278;52.110;6.050;2022-07-06T08:15:41;20.60;73.50
37412;DHT22;23278;52.110;6.050;2022-07-06T08:18:08;20.70;73.00
37412;DHT22;23278;52.110;6.050;2022-07-06T08:20:35;20.90;72.20
37412;DHT22;23278;52.110;6.050;2022-07-06T08:23:01;21.00;71.50
37412;DHT22;23278;52.110;6.050;2022-07-06T08:25:27;21.20;70.80
37412;DHT22;23278;52.110;6.050;2022-07-06T08:27:53;21.30;68.40
37412;DHT22;23278;52.110;6.050;2022-07-06T08:30:19;21.00;66.90
37412;DHT22;23278;52.110;6.050;2022-07-06T08:32:45;20.80;65.90
37412;DHT22;23278;52.110;6.050;2022-07-06T08:35:12;20.60;65.70
37412;DHT22;23278;52.110;6.050;2022-07-06T08:37:37;20.40;63.50
37412;DHT22;23278;52.110;6.050;2022-07-06T08:40:04;20.40;63.50
37412;DHT22;23278;52.110;6.050;2022-07-06T08:42:33;20.50;64.00
37412;DHT22;23278;52.110;6.050;2022-07-06T08:45:02;20.80;63.60
37412;DHT22;23278;52.110;6.050;2022-07-06T08:47:30;21.00;63.10
37412;DHT22;23278;52.110;6.050;2022-07-06T08:49:56;21.40;62.40
37412;DHT22;23278;52.110;6.050;2022-07-06T08:52:23;21.70;61.40
37412;DHT22;23278;52.110;6.050;2022-07-06T08:54:50;22.00;59.90
37412;DHT22;23278;52.110;6.050;2022-07-06T08:57:17;22.20;58.10
37412;DHT22;23278;52.110;6.050;2022-07-06T08:59:44;22.30;57.00
37412;DHT22;23278;52.110;6.050;2022-07-06T09:02:10;22.20;56.70
37412;DHT22;23278;52.110;6.050;2022-07-06T09:04:37;22.00;57.10
37412;DHT22;23278;52.110;6.050;2022-07-06T09:07:04;21.90;57.50
37412;DHT22;23278;52.110;6.050;2022-07-06T09:09:30;22.00;57.10
37412;DHT22;23278;52.110;6.050;2022-07-06T09:11:57;22.20;57.10
37412;DHT22;23278;52.110;6.050;2022-07-06T09:14:23;22.60;56.50
37412;DHT22;23278;52.110;6.050;2022-07-06T09:17:02;23.00;55.20
37412;DHT22;23278;52.110;6.050;2022-07-06T09:19:31;23.20;54.40
37412;DHT22;23278;52.110;6.050;2022-07-06T09:21:57;23.20;53.20
37412;DHT22;23278;52.110;6.050;2022-07-06T09:24:23;23.10;52.70
37412;DHT22;23278;52.110;6.050;2022-07-06T09:26:50;23.00;52.90
37412;DHT22;23278;52.110;6.050;2022-07-06T09:29:15;23.20;52.50
37412;DHT22;23278;52.110;6.050;2022-07-06T09:31:42;23.40;51.40
37412;DHT22;23278;52.110;6.050;2022-07-06T09:34:09;23.60;51.10
37412;DHT22;23278;52.110;6.050;2022-07-06T09:36:47;23.70;50.40
37412;DHT22;23278;52.110;6.050;2022-07-06T09:39:25;23.60;50.90
37412;DHT22;23278;52.110;6.050;2022-07-06T09:41:54;23.40;51.20
37412;DHT22;23278;52.110;6.050;2022-07-06T09:46:51;23.30;52.10
37412;DHT22;23278;52.110;6.050;2022-07-06T09:49:21;23.30;52.00
37412;DHT22;23278;52.110;6.050;2022-07-06T09:51:53;23.30;51.70
37412;DHT22;23278;52.110;6.050;2022-07-06T09:54:20;23.40;51.00
37412;DHT22;23278;52.110;6.050;2022-07-06T09:56:47;23.80;51.00
37412;DHT22;23278;52.110;6.050;2022-07-06T09:59:21;24.30;50.40
37412;DHT22;23278;52.110;6.050;2022-07-06T10:01:53;25.10;49.50
37412;DHT22;23278;52.110;6.050;2022-07-06T10:04:20;25.90;48.50
37412;DHT22;23278;52.110;6.050;2022-07-06T10:06:47;26.60;46.80
37412;DHT22;23278;52.110;6.050;2022-07-06T10:09:14;27.20;45.90
37412;DHT22;23278;52.110;6.050;2022-07-06T10:14:20;27.00;45.00
37412;DHT22;23278;52.110;6.050;2022-07-06T10:16:48;26.70;45.00
37412;DHT22;23278;52.110;6.050;2022-07-06T10:19:16;26.30;44.30
37412;DHT22;23278;52.110;6.050;2022-07-06T10:21:43;26.10;43.60
37412;DHT22;23278;52.110;6.050;2022-07-06T10:24:10;26.10;43.50
37412;DHT22;23278;52.110;6.050;2022-07-06T10:26:37;26.50;43.00
37412;DHT22;23278;52.110;6.050;2022-07-06T10:29:04;26.90;42.10
37412;DHT22;23278;52.110;6.050;2022-07-06T10:31:30;27.40;41.50
37412;DHT22;23278;52.110;6.050;2022-07-06T10:33:58;28.10;41.20
37412;DHT22;23278;52.110;6.050;2022-07-06T10:36:25;28.70;40.60
37412;DHT22;23278;52.110;6.050;2022-07-06T10:38:52;29.40;39.70
37412;DHT22;23278;52.110;6.050;2022-07-06T10:41:30;30.00;38.30
37412;DHT22;23278;52.110;6.050;2022-07-06T10:43:57;30.20;37.70
37412;DHT22;23278;52.110;6.050;2022-07-06T10:46:28;29.50;38.10
37412;DHT22;23278;52.110;6.050;2022-07-06T10:48:54;28.90;39.00
37412;DHT22;23278;52.110;6.050;2022-07-06T10:51:28;28.40;38.40
37412;DHT22;23278;52.110;6.050;2022-07-06T10:54:04;28.30;38.50
37412;DHT22;23278;52.110;6.050;2022-07-06T10:56:37;28.20;39.10
37412;DHT22;23278;52.110;6.050;2022-07-06T11:01:40;27.70;39.70
37412;DHT22;23278;52.110;6.050;2022-07-06T11:04:09;27.60;40.00
37412;DHT22;23278;52.110;6.050;2022-07-06T11:06:37;28.50;39.20
37412;DHT22;23278;52.110;6.050;2022-07-06T11:09:11;29.30;38.80
37412;DHT22;23278;52.110;6.050;2022-07-06T11:11:37;30.30;37.50
37412;DHT22;23278;52.110;6.050;2022-07-06T11:14:14;30.90;36.70
37412;DHT22;23278;52.110;6.050;2022-07-06T11:19:17;31.50;36.10
37412;DHT22;23278;52.110;6.050;2022-07-06T11:21:47;32.30;35.30
37412;DHT22;23278;52.110;6.050;2022-07-06T11:24:18;34.20;34.50
37412;DHT22;23278;52.110;6.050;2022-07-06T11:26:47;36.00;33.30
37412;DHT22;23278;52.110;6.050;2022-07-06T11:29:15;35.40;33.40
37412;DHT22;23278;52.110;6.050;2022-07-06T11:31:44;34.00;34.50
37412;DHT22;23278;52.110;6.050;2022-07-06T11:34:18;33.70;34.90
37412;DHT22;23278;52.110;6.050;2022-07-06T11:36:44;35.20;32.90
37412;DHT22;23278;52.110;6.050;2022-07-06T11:39:10;37.20;31.50
37412;DHT22;23278;52.110;6.050;2022-07-06T11:41:36;37.10;31.70
37412;DHT22;23278;52.110;6.050;2022-07-06T11:44:02;35.90;32.10
37412;DHT22;23278;52.110;6.050;2022-07-06T11:46:31;35.20;32.40
37412;DHT22;23278;52.110;6.050;2022-07-06T11:49:06;36.80;31.40
37412;DHT22;23278;52.110;6.050;2022-07-06T11:51:37;38.90;30.40
37412;DHT22;23278;52.110;6.050;2022-07-06T11:54:15;39.30;29.70
37412;DHT22;23278;52.110;6.050;2022-07-06T11:59:16;41.40;28.70
37412;DHT22;23278;52.110;6.050;2022-07-06T12:01:42;41.20;28.60
37412;DHT22;23278;52.110;6.050;2022-07-06T12:04:10;39.50;29.10
37412;DHT22;23278;52.110;6.050;2022-07-06T12:06:36;38.30;29.60
37412;DHT22;23278;52.110;6.050;2022-07-06T12:09:03;39.00;29.40
37412;DHT22;23278;52.110;6.050;2022-07-06T12:11:32;40.70;28.90
37412;DHT22;23278;52.110;6.050;2022-07-06T12:14:12;41.90;28.00
37412;DHT22;23278;52.110;6.050;2022-07-06T12:16:39;43.00;27.50
37412;DHT22;23278;52.110;6.050;2022-07-06T12:19:06;44.00;27.60
37412;DHT22;23278;52.110;6.050;2022-07-06T12:21:34;44.40;27.50
37412;DHT22;23278;52.110;6.050;2022-07-06T12:24:00;42.40;28.30
37412;DHT22;23278;52.110;6.050;2022-07-06T12:26:28;41.40;28.10
37412;DHT22;23278;52.110;6.050;2022-07-06T12:29:05;42.20;27.00
37412;DHT22;23278;52.110;6.050;2022-07-06T12:31:35;43.60;26.90
37412;DHT22;23278;52.110;6.050;2022-07-06T12:34:02;43.90;26.70
37412;DHT22;23278;52.110;6.050;2022-07-06T12:36:29;42.20;27.10
37412;DHT22;23278;52.110;6.050;2022-07-06T12:38:55;40.50;27.50
37412;DHT22;23278;52.110;6.050;2022-07-06T12:41:26;38.90;28.10
37412;DHT22;23278;52.110;6.050;2022-07-06T12:44:01;39.30;27.50
37412;DHT22;23278;52.110;6.050;2022-07-06T12:46:33;40.80;27.10
37412;DHT22;23278;52.110;6.050;2022-07-06T12:49:04;42.50;26.70
37412;DHT22;23278;52.110;6.050;2022-07-06T12:51:52;43.20;26.30
37412;DHT22;23278;52.110;6.050;2022-07-06T12:54:19;43.80;26.20
37412;DHT22;23278;52.110;6.050;2022-07-06T12:57:08;44.60;26.00
37412;DHT22;23278;52.110;6.050;2022-07-06T12:59:36;44.20;26.30
37412;DHT22;23278;52.110;6.050;2022-07-06T13:02:06;42.90;26.40
37412;DHT22;23278;52.110;6.050;2022-07-06T13:04:35;41.10;27.00
37412;DHT22;23278;52.110;6.050;2022-07-06T13:07:02;40.80;27.10
37412;DHT22;23278;52.110;6.050;2022-07-06T13:09:29;41.10;27.30
37412;DHT22;23278;52.110;6.050;2022-07-06T13:11:56;40.90;27.30
37412;DHT22;23278;52.110;6.050;2022-07-06T13:14:22;40.00;27.70
37412;DHT22;23278;52.110;6.050;2022-07-06T13:16:48;38.90;28.10
37412;DHT22;23278;52.110;6.050;2022-07-06T13:19:14;37.90;28.50
37412;DHT22;23278;52.110;6.050;2022-07-06T13:21:40;37.40;28.60
37412;DHT22;23278;52.110;6.050;2022-07-06T13:24:07;37.00;29.10
37412;DHT22;23278;52.110;6.050;2022-07-06T13:26:33;36.40;29.10
37412;DHT22;23278;52.110;6.050;2022-07-06T13:29:03;36.20;29.30
37412;DHT22;23278;52.110;6.050;2022-07-06T13:31:30;36.10;29.40
37412;DHT22;23278;52.110;6.050;2022-07-06T13:33:56;35.70;29.60
37412;DHT22;23278;52.110;6.050;2022-07-06T13:36:25;35.60;29.70
37412;DHT22;23278;52.110;6.050;2022-07-06T13:38:51;35.40;29.80
37412;DHT22;23278;52.110;6.050;2022-07-06T13:41:17;34.80;30.00
37412;DHT22;23278;52.110;6.050;2022-07-06T13:43:43;34.30;30.50
37412;DHT22;23278;52.110;6.050;2022-07-06T13:46:08;34.00;30.90
37412;DHT22;23278;52.110;6.050;2022-07-06T13:48:36;33.80;31.00
37412;DHT22;23278;52.110;6.050;2022-07-06T13:51:02;34.00;30.80
37412;DHT22;23278;52.110;6.050;2022-07-06T13:53:28;34.20;30.70
37412;DHT22;23278;52.110;6.050;2022-07-06T13:55:54;34.20;30.50
37412;DHT22;23278;52.110;6.050;2022-07-06T13:58:20;34.40;30.60
37412;DHT22;23278;52.110;6.050;2022-07-06T14:00:46;34.80;30.40
37412;DHT22;23278;52.110;6.050;2022-07-06T14:03:12;34.80;30.20
37412;DHT22;23278;52.110;6.050;2022-07-06T14:05:38;35.30;30.00
37412;DHT22;23278;52.110;6.050;2022-07-06T14:08:05;35.70;30.10
37412;DHT22;23278;52.110;6.050;2022-07-06T14:10:31;35.40;30.20
37412;DHT22;23278;52.110;6.050;2022-07-06T14:12:57;34.80;30.50
37412;DHT22;23278;52.110;6.050;2022-07-06T14:15:23;34.40;31.00
37412;DHT22;23278;52.110;6.050;2022-07-06T14:17:49;33.80;31.40
37412;DHT22;23278;52.110;6.050;2022-07-06T14:20:15;33.20;31.80
37412;DHT22;23278;52.110;6.050;2022-07-06T14:22:41;32.90;32.20
37412;DHT22;23278;52.110;6.050;2022-07-06T14:25:07;32.80;32.40
37412;DHT22;23278;52.110;6.050;2022-07-06T14:27:35;33.00;32.10
37412;DHT22;23278;52.110;6.050;2022-07-06T14:30:01;33.10;31.90
37412;DHT22;23278;52.110;6.050;2022-07-06T14:32:27;32.80;32.20
37412;DHT22;23278;52.110;6.050;2022-07-06T14:34:53;32.30;32.90
37412;DHT22;23278;52.110;6.050;2022-07-06T14:37:19;31.70;32.80
37412;DHT22;23278;52.110;6.050;2022-07-06T14:39:45;31.60;32.70
37412;DHT22;23278;52.110;6.050;2022-07-06T14:42:12;31.50;32.90
37412;DHT22;23278;52.110;6.050;2022-07-06T14:44:38;31.20;33.00
37412;DHT22;23278;52.110;6.050;2022-07-06T14:47:04;31.50;32.80
37412;DHT22;23278;52.110;6.050;2022-07-06T14:49:30;31.70;32.70
37412;DHT22;23278;52.110;6.050;2022-07-06T14:51:56;31.40;33.00
37412;DHT22;23278;52.110;6.050;2022-07-06T14:54:23;31.00;33.50
37412;DHT22;23278;52.110;6.050;2022-07-06T14:56:50;30.70;33.80
37412;DHT22;23278;52.110;6.050;2022-07-06T14:59:16;30.30;34.20
37412;DHT22;23278;52.110;6.050;2022-07-06T15:01:42;30.00;34.60
37412;DHT22;23278;52.110;6.050;2022-07-06T15:04:08;29.90;35.10
37412;DHT22;23278;52.110;6.050;2022-07-06T15:06:34;29.70;34.90
37412;DHT22;23278;52.110;6.050;2022-07-06T15:09:00;29.30;35.10
37412;DHT22;23278;52.110;6.050;2022-07-06T15:11:33;29.00;35.20
37412;DHT22;23278;52.110;6.050;2022-07-06T15:13:59;28.80;35.60
37412;DHT22;23278;52.110;6.050;2022-07-06T15:16:25;28.50;36.20
37412;DHT22;23278;52.110;6.050;2022-07-06T15:18:52;28.10;36.40
37412;DHT22;23278;52.110;6.050;2022-07-06T15:21:18;27.70;37.10
37412;DHT22;23278;52.110;6.050;2022-07-06T15:23:44;27.40;37.20
37412;DHT22;23278;52.110;6.050;2022-07-06T15:26:10;27.10;37.40
37412;DHT22;23278;52.110;6.050;2022-07-06T15:28:36;27.00;37.90
37412;DHT22;23278;52.110;6.050;2022-07-06T15:31:02;26.80;37.80
37412;DHT22;23278;52.110;6.050;2022-07-06T15:33:28;26.70;38.00
37412;DHT22;23278;52.110;6.050;2022-07-06T15:35:54;26.60;38.20
37412;DHT22;23278;52.110;6.050;2022-07-06T15:38:20;26.60;38.70
37412;DHT22;23278;52.110;6.050;2022-07-06T15:40:46;26.60;38.90
37412;DHT22;23278;52.110;6.050;2022-07-06T15:43:26;26.50;38.80
37412;DHT22;23278;52.110;6.050;2022-07-06T15:45:59;26.60;39.20
37412;DHT22;23278;52.110;6.050;2022-07-06T15:48:26;26.50;39.30
37412;DHT22;23278;52.110;6.050;2022-07-06T15:50:53;26.50;39.30
37412;DHT22;23278;52.110;6.050;2022-07-06T15:53:19;26.40;39.10
37412;DHT22;23278;52.110;6.050;2022-07-06T15:55:45;26.30;39.10